LFMNGOOY

Guest
Details From LFMN - Nice/Cote d'Azur
To GOOY - Dakar Leopold Sedar Senghor Intl
Flight Number -
Tags decoded
Created
Modified
Stats Distance 2,180 nm / 4,038 km
Max Altitude 0 ft / 0 m
Waypoints 16
Social Downloads 0
Likes 0
Share VATSIM

Download

Looking for another format? Having issues loading an existing format? Contact us
Advertisement - Login to hide

Notes

Requested: LFMN TINOT N86 MAMES ADM UR975 SLO R975F YF GOOY

Route

LFMN TINOT N86 MAMES ADM UR975 BIMOG R975F AR UR975 SLO YF GOOY

ID Type Via Altitude Latitude Longitude Leg Dist Tot Dist Heading (true) Name
O LFMN APT - 0 ft / 0 m 43.65798˚ 7.21536˚ - 0 nm - Nice/Cote d'Azur
TINOT FIX - 0 ft / 0 m 42.69778˚ 5.31500˚ 101 nm 101 nm 236° / 235° -
SOSUR FIX N86 (AWY-LO) 0 ft / 0 m 42.56028˚ 4.99750˚ 16 nm 117 nm 240° / 239° -
BALMO FIX N86 (AWY-LO) 0 ft / 0 m 42.41667˚ 4.58528˚ 20 nm 137 nm 245° / 245° -
MAMES FIX N86 (AWY-LO) 0 ft / 0 m 42.20917˚ 4.00028˚ 28 nm 166 nm 245° / 244° -
ADM VOR - 0 ft / 0 m 30.32194˚ -9.38333˚ 961 nm 1128 nm 226° / 218° AGADIR VOR-DME
MOROX FIX UR975 (AWY-HI) 0 ft / 0 m 29.00000˚ -10.00889˚ 85 nm 1214 nm 203° / 202° -
ECHED FIX UR975 (AWY-HI) 0 ft / 0 m 27.66667˚ -10.51667˚ 84 nm 1298 nm 199° / 198° -
BIMOG FIX UR975 (AWY-HI) 0 ft / 0 m 25.21667˚ -11.55000˚ 157 nm 1455 nm 201° / 200° -
ZRT VOR R975F (AWY-LO) 0 ft / 0 m 22.75853˚ -12.46158˚ 155 nm 1611 nm 199° / 199° ZOUERAT VOR
AR NDB R975F (AWY-LO) 0 ft / 0 m 20.50231˚ -13.05908˚ 139 nm 1751 nm 194° / 194° ATAR NDB
IDINI FIX UR975 (AWY-HI) 0 ft / 0 m 17.64306˚ -15.26583˚ 212 nm 1963 nm 216° / 216° -
ULNOT FIX UR975 (AWY-HI) 0 ft / 0 m 17.10722˚ -15.66917˚ 39 nm 2003 nm 216° / 216° -
SLO NDB UR975 (AWY-HI) 0 ft / 0 m 16.04908˚ -16.45714˚ 78 nm 2081 nm 216° / 215° SAINT LOUIS NDB
YF LOC-ILS - 0 ft / 0 m 14.75859˚ -17.48129˚ 97 nm 2179 nm 218° / 217° ILS-cat-I
O GOOY APT - 0 ft / 0 m 14.73971˚ -17.49023˚ 1 nm 2180 nm 205° / 205° Dakar Leopold Sedar Senghor Intl

Altitude Profile

Advertisement - Login to hide

Weather


0- 5 10 15 20 25 30 35+ Temperature / ° C

Clouds and Precipitation
Forecast for 2018-05-27 12:00 UTC. Updated 3 hours ago

Ground ~20,000 ft ~40,000 ft Winds

LFMN

Details ICAO LFMN (NCE)
Name Nice/Cote d'Azur
Region France
Timezone Unknown (UTC+0.0)
Stats Elevation 12 ft / 4 m (AMSL)
Location 43.657981° 7.215362°
Runways 2
Magnetic Variation 2.067° E

METAR

LFMN 271430Z 06009KT 030V090 CAVOK 24/17 Q1015 NOSIG

Decode

TAF

TAF LFMN 271400Z 2715/2821 08010KT CAVOK PROB30 TEMPO 2715/2809 TS SCT100CB TEMPO 2809/2815 18008KT 4000 TSRA SCT060CB BKN110 TEMPO 2815/2821 BKN014

Decode

Departure Runways

ID Width Length Bearing (true) Bearing (mag) Surface Threshold Offset Overrun Length
04L 148 ft / 45 m 8,427 ft / 2,569 m 44.85° 42.78° Asphalt 0 ft / 0 m 131 ft / 40 m
04R 148 ft / 45 m 9,720 ft / 2,963 m 44.60° 42.53° Asphalt 0 ft / 0 m 427 ft / 130 m
22L 148 ft / 45 m 9,720 ft / 2,963 m 224.62° 222.55° Asphalt 0 ft / 0 m 525 ft / 160 m
22R 148 ft / 45 m 8,427 ft / 2,569 m 224.87° 222.80° Asphalt 0 ft / 0 m 492 ft / 150 m

GOOY

Details ICAO GOOY (DKR)
Name Dakar Leopold Sedar Senghor Intl
Region Senegal
Timezone Africa/Dakar (UTC+0.0)
Stats Elevation 85 ft / 26 m (AMSL)
Location 14.739711° -17.490226°
Runways 2
Magnetic Variation 7.296° W

METAR

GOOY 271400Z 34012KT CAVOK 24/20 Q1014

Decode

TAF

TAF GOOY 271130Z 2712/2818 35013KT CAVOK= TAF GBYD 271130Z 2712/2818 27010KT CAVOK

Decode

Destination Runways

ID Width Length Bearing (true) Bearing (mag) Surface Threshold Offset Overrun Length
03 98 ft / 30 m 4,921 ft / 1,500 m 22.31° 29.61° Asphalt 0 ft / 0 m 98 ft / 30 m
18 148 ft / 45 m 11,511 ft / 3,509 m 172.57° 179.87° Asphalt 525 ft / 160 m 197 ft / 60 m
21 98 ft / 30 m 4,921 ft / 1,500 m 202.31° 209.61° Asphalt 0 ft / 0 m 1,590 ft / 485 m
36 148 ft / 45 m 11,511 ft / 3,509 m 352.57° 359.87° Asphalt 0 ft / 0 m 197 ft / 60 m

Approach Navaids

Runway Type Ident Frequency Range Bearing (true) Bearing (mag) Slope Elevation
36 Localiser YF 110.30 MHz 18 nm / 33 km 352.33° 359.62° - 65 ft / 20 m (AMSL)
36 Glidescope YF 110.30 MHz 10 nm / 19 km 352.57° 359.87° 3.01° 73 ft / 22 m (AMSL)
36 DME YF 110.30 MHz 18 nm / 33 km - - - 73 ft / 22 m (AMSL)

Popular Alternatives